CFG3511 LIRF-EDDF
Flight info
| Callsign | CFG3511 |
|---|---|
| Flight time | 1h 21m |
| Altitude | 36000 |
| Route | SOVAN DCT AMTEL DCT SUMIR DCT NAXAV DCT UNIMI L12 MOGTI Q163 OLASO/N0452F320 Q163 HAFUN/N0407F240 Q163 ETASA T163 SPESA SPESA5C |
| Aircraft | A320/M-SDE3FGHIJ1LORVWXYZ/LB1 |
Departure
| Time | 2026-04-15 08:45 |
|---|---|
| Airport | Rome–Fiumicino Leonardo da Vinci International Airport (LIRF) |
Arrival
| Time | 2026-04-15 10:06 |
|---|---|
| Airport | Frankfurt Main Airport (EDDF) |
| Time | Latitude | Longitude | Altitude | Speed | Heading |
|---|---|---|---|---|---|
| 2026-04-15 08:24 | 41.79764 | 12.25663 | 14 ft | 0 kts | 296° |
| 2026-04-15 08:38 | 41.79759 | 12.25684 | 14 ft | 4 kts | 270° |
| 2026-04-15 08:38 | 41.79753 | 12.25714 | 14 ft | 4 kts | 311° |
| 2026-04-15 08:38 | 41.79735 | 12.25723 | 14 ft | 3 kts | 23° |
| 2026-04-15 08:39 | 41.79741 | 12.25727 | 14 ft | 4 kts | 25° |
| 2026-04-15 08:39 | 41.79766 | 12.25743 | 14 ft | 4 kts | 25° |
| 2026-04-15 08:39 | 41.79790 | 12.25758 | 14 ft | 4 kts | 25° |
| 2026-04-15 08:39 | 41.79797 | 12.25762 | 14 ft | 0 kts | 25° |
| 2026-04-15 08:41 | 41.79836 | 12.25789 | 14 ft | 17 kts | 29° |
| 2026-04-15 08:41 | 41.79960 | 12.25877 | 14 ft | 21 kts | 25° |
| 2026-04-15 08:42 | 41.80095 | 12.25962 | 14 ft | 22 kts | 25° |
| 2026-04-15 08:42 | 41.80241 | 12.26049 | 14 ft | 23 kts | 24° |
| 2026-04-15 08:42 | 41.80341 | 12.26110 | 14 ft | 24 kts | 25° |
| 2026-04-15 08:42 | 41.80498 | 12.26182 | 16 ft | 24 kts | 6° |
| 2026-04-15 08:43 | 41.80623 | 12.26207 | 16 ft | 15 kts | 356° |
| 2026-04-15 08:43 | 41.80643 | 12.26201 | 16 ft | 0 kts | 342° |
| 2026-04-15 08:43 | 41.80669 | 12.26190 | 16 ft | 12 kts | 342° |
| 2026-04-15 08:43 | 41.80717 | 12.26106 | 19 ft | 10 kts | 273° |
| 2026-04-15 08:44 | 41.80705 | 12.26011 | 18 ft | 13 kts | 251° |
| 2026-04-15 08:44 | 41.80605 | 12.25650 | 16 ft | 78 kts | 249° |
| 2026-04-15 08:44 | 41.80339 | 12.24692 | 16 ft | 139 kts | 250° |
| 2026-04-15 08:44 | 41.79964 | 12.23338 | 359 ft | 156 kts | 249° |
| 2026-04-15 08:45 | 41.79597 | 12.21973 | 1036 ft | 156 kts | 249° |
| 2026-04-15 08:45 | 41.79235 | 12.20576 | 1520 ft | 167 kts | 258° |
| 2026-04-15 08:45 | 41.79342 | 12.18939 | 1775 ft | 191 kts | 292° |
| 2026-04-15 08:45 | 41.80134 | 12.17403 | 2145 ft | 207 kts | 308° |
| 2026-04-15 08:46 | 41.81046 | 12.15886 | 2798 ft | 210 kts | 308° |
| 2026-04-15 08:46 | 41.81964 | 12.14342 | 3459 ft | 213 kts | 308° |
| 2026-04-15 08:46 | 41.82889 | 12.12780 | 4114 ft | 215 kts | 308° |
| 2026-04-15 08:46 | 41.84035 | 12.11397 | 4483 ft | 235 kts | 333° |
| 2026-04-15 08:47 | 41.85690 | 12.10817 | 4795 ft | 260 kts | 350° |
| 2026-04-15 08:47 | 41.87539 | 12.10428 | 5365 ft | 274 kts | 351° |
| 2026-04-15 08:47 | 41.89449 | 12.10033 | 6167 ft | 280 kts | 351° |
| 2026-04-15 08:47 | 41.91387 | 12.09633 | 6982 ft | 284 kts | 351° |
| 2026-04-15 08:48 | 41.93354 | 12.09226 | 7782 ft | 288 kts | 351° |
| 2026-04-15 08:48 | 41.95353 | 12.08810 | 8560 ft | 292 kts | 351° |
| 2026-04-15 08:48 | 41.97374 | 12.08383 | 9313 ft | 296 kts | 351° |
| 2026-04-15 08:48 | 41.99421 | 12.07947 | 10032 ft | 300 kts | 351° |
| 2026-04-15 08:49 | 42.01535 | 12.07496 | 10396 ft | 318 kts | 351° |
| 2026-04-15 08:49 | 42.03799 | 12.07010 | 10538 ft | 341 kts | 351° |
| 2026-04-15 08:49 | 42.06198 | 12.06495 | 10877 ft | 354 kts | 351° |
| 2026-04-15 08:49 | 42.08649 | 12.05972 | 11448 ft | 360 kts | 351° |
| 2026-04-15 08:50 | 42.11137 | 12.05445 | 12034 ft | 364 kts | 351° |
| 2026-04-15 08:50 | 42.13647 | 12.04913 | 12607 ft | 367 kts | 351° |
| 2026-04-15 08:50 | 42.16188 | 12.04370 | 13156 ft | 371 kts | 351° |
| 2026-04-15 08:50 | 42.18744 | 12.03823 | 13675 ft | 374 kts | 351° |
| 2026-04-15 08:51 | 42.21327 | 12.03259 | 14174 ft | 378 kts | 350° |
| 2026-04-15 08:51 | 42.23931 | 12.02675 | 14658 ft | 381 kts | 350° |
| 2026-04-15 08:51 | 42.26550 | 12.02083 | 15122 ft | 384 kts | 350° |
| 2026-04-15 08:51 | 42.29196 | 12.01484 | 15565 ft | 387 kts | 350° |
| 2026-04-15 08:52 | 42.31856 | 12.00879 | 15987 ft | 389 kts | 350° |
| 2026-04-15 08:52 | 42.34538 | 12.00270 | 16394 ft | 392 kts | 350° |
| 2026-04-15 08:52 | 42.37240 | 11.99659 | 16784 ft | 395 kts | 350° |
| 2026-04-15 08:52 | 42.39958 | 11.99046 | 17162 ft | 398 kts | 350° |
| 2026-04-15 08:53 | 42.42702 | 11.98430 | 17527 ft | 400 kts | 350° |
| 2026-04-15 08:53 | 42.45459 | 11.97810 | 17880 ft | 403 kts | 350° |
| 2026-04-15 08:53 | 42.48228 | 11.97186 | 18222 ft | 405 kts | 350° |
| 2026-04-15 08:53 | 42.51014 | 11.96556 | 18546 ft | 407 kts | 350° |
| 2026-04-15 08:54 | 42.53823 | 11.95918 | 18864 ft | 410 kts | 350° |
| 2026-04-15 08:54 | 42.56643 | 11.95278 | 19171 ft | 412 kts | 350° |
| 2026-04-15 08:54 | 42.59478 | 11.94634 | 19474 ft | 414 kts | 350° |
| 2026-04-15 08:54 | 42.62328 | 11.93987 | 19768 ft | 416 kts | 350° |
| 2026-04-15 08:55 | 42.65191 | 11.93337 | 20043 ft | 418 kts | 350° |
| 2026-04-15 08:55 | 42.68027 | 11.92690 | 20315 ft | 420 kts | 350° |
| 2026-04-15 08:55 | 42.70914 | 11.92031 | 20581 ft | 422 kts | 350° |
| 2026-04-15 08:55 | 42.73822 | 11.91367 | 20836 ft | 424 kts | 350° |
| 2026-04-15 08:56 | 42.76734 | 11.90706 | 21078 ft | 426 kts | 350° |
| 2026-04-15 08:56 | 42.79667 | 11.90041 | 21312 ft | 428 kts | 350° |
| 2026-04-15 08:56 | 42.82587 | 11.89237 | 21527 ft | 429 kts | 343° |
| 2026-04-15 08:56 | 42.85370 | 11.87786 | 21733 ft | 430 kts | 333° |
| 2026-04-15 08:57 | 42.88022 | 11.85861 | 21931 ft | 432 kts | 331° |
| 2026-04-15 08:57 | 42.90670 | 11.83914 | 22127 ft | 433 kts | 331° |
| 2026-04-15 08:57 | 42.93326 | 11.81967 | 22311 ft | 435 kts | 331° |
| 2026-04-15 08:57 | 42.95995 | 11.80012 | 22487 ft | 436 kts | 331° |
| 2026-04-15 08:58 | 42.98669 | 11.78053 | 22654 ft | 437 kts | 331° |
| 2026-04-15 08:58 | 43.04046 | 11.74113 | 22963 ft | 440 kts | 331° |
| 2026-04-15 08:58 | 43.06747 | 11.72130 | 23115 ft | 441 kts | 331° |
| 2026-04-15 08:59 | 43.09451 | 11.70141 | 23253 ft | 442 kts | 331° |
| 2026-04-15 08:59 | 43.12158 | 11.68144 | 23386 ft | 443 kts | 331° |
| 2026-04-15 08:59 | 43.14875 | 11.66140 | 23514 ft | 444 kts | 331° |
| 2026-04-15 08:59 | 43.17602 | 11.64131 | 23647 ft | 445 kts | 331° |
| 2026-04-15 09:00 | 43.20380 | 11.62253 | 23772 ft | 446 kts | 338° |
| 2026-04-15 09:00 | 43.23348 | 11.61021 | 23899 ft | 447 kts | 348° |
| 2026-04-15 09:00 | 43.26437 | 11.60510 | 24028 ft | 448 kts | 356° |
| 2026-04-15 09:00 | 43.29547 | 11.60272 | 24156 ft | 448 kts | 356° |
| 2026-04-15 09:01 | 43.32658 | 11.60033 | 24281 ft | 448 kts | 356° |
| 2026-04-15 09:01 | 43.35775 | 11.59791 | 24405 ft | 449 kts | 356° |
| 2026-04-15 09:01 | 43.38893 | 11.59548 | 24530 ft | 449 kts | 356° |
| 2026-04-15 09:01 | 43.42013 | 11.59302 | 24655 ft | 449 kts | 356° |
| 2026-04-15 09:02 | 43.45138 | 11.59057 | 24780 ft | 449 kts | 356° |
| 2026-04-15 09:02 | 43.48265 | 11.58812 | 24904 ft | 450 kts | 356° |
| 2026-04-15 09:02 | 43.51383 | 11.58570 | 25029 ft | 450 kts | 356° |
| 2026-04-15 09:02 | 43.54509 | 11.58326 | 25154 ft | 449 kts | 356° |
| 2026-04-15 09:03 | 43.57627 | 11.58078 | 25278 ft | 449 kts | 356° |
| 2026-04-15 09:03 | 43.60749 | 11.57829 | 25403 ft | 449 kts | 356° |
| 2026-04-15 09:03 | 43.63868 | 11.57582 | 25527 ft | 449 kts | 356° |
| 2026-04-15 09:03 | 43.66988 | 11.57339 | 25652 ft | 448 kts | 356° |
| 2026-04-15 09:04 | 43.70101 | 11.57094 | 25777 ft | 448 kts | 356° |
| 2026-04-15 09:04 | 43.73210 | 11.56848 | 25901 ft | 448 kts | 356° |
| 2026-04-15 09:04 | 43.76324 | 11.56604 | 26026 ft | 448 kts | 356° |
| 2026-04-15 09:04 | 43.79434 | 11.56357 | 26151 ft | 447 kts | 356° |
| 2026-04-15 09:05 | 43.82542 | 11.56110 | 26276 ft | 447 kts | 356° |
| 2026-04-15 09:05 | 43.85647 | 11.55864 | 26400 ft | 447 kts | 356° |
| 2026-04-15 09:05 | 43.88748 | 11.55621 | 26525 ft | 446 kts | 356° |
| 2026-04-15 09:05 | 43.91847 | 11.55378 | 26650 ft | 446 kts | 356° |
| 2026-04-15 09:06 | 43.94943 | 11.55131 | 26775 ft | 446 kts | 356° |
| 2026-04-15 09:06 | 43.98038 | 11.54881 | 26900 ft | 445 kts | 356° |
| 2026-04-15 09:06 | 44.01132 | 11.54633 | 27025 ft | 445 kts | 356° |
| 2026-04-15 09:06 | 44.04225 | 11.54387 | 27150 ft | 445 kts | 356° |
| 2026-04-15 09:07 | 44.07316 | 11.54141 | 27274 ft | 445 kts | 356° |
| 2026-04-15 09:07 | 44.10401 | 11.53891 | 27399 ft | 444 kts | 356° |
| 2026-04-15 09:07 | 44.13488 | 11.53641 | 27524 ft | 444 kts | 356° |
| 2026-04-15 09:07 | 44.16530 | 11.53396 | 27646 ft | 444 kts | 356° |
| 2026-04-15 09:08 | 44.19616 | 11.53149 | 27771 ft | 443 kts | 356° |
| 2026-04-15 09:08 | 44.22691 | 11.52905 | 27896 ft | 443 kts | 356° |
| 2026-04-15 09:08 | 44.25767 | 11.52662 | 28021 ft | 443 kts | 356° |
| 2026-04-15 09:08 | 44.28846 | 11.52416 | 28146 ft | 443 kts | 356° |
| 2026-04-15 09:09 | 44.31920 | 11.52165 | 28271 ft | 442 kts | 356° |
| 2026-04-15 09:09 | 44.34997 | 11.51913 | 28396 ft | 442 kts | 356° |
| 2026-04-15 09:09 | 44.38064 | 11.51661 | 28521 ft | 442 kts | 356° |
| 2026-04-15 09:09 | 44.41135 | 11.51413 | 28646 ft | 442 kts | 356° |
| 2026-04-15 09:10 | 44.44204 | 11.51165 | 28771 ft | 441 kts | 356° |
| 2026-04-15 09:10 | 44.47269 | 11.50921 | 28896 ft | 441 kts | 356° |
| 2026-04-15 09:10 | 44.50326 | 11.50675 | 29021 ft | 441 kts | 356° |
| 2026-04-15 09:10 | 44.53390 | 11.50422 | 29146 ft | 440 kts | 356° |
| 2026-04-15 09:11 | 44.56445 | 11.50171 | 29271 ft | 440 kts | 356° |
| 2026-04-15 09:11 | 44.59501 | 11.49919 | 29396 ft | 440 kts | 356° |
| 2026-04-15 09:11 | 44.62552 | 11.49669 | 29521 ft | 439 kts | 356° |
| 2026-04-15 09:11 | 44.65608 | 11.49423 | 29646 ft | 439 kts | 356° |
| 2026-04-15 09:12 | 44.68656 | 11.49177 | 29771 ft | 439 kts | 356° |
| 2026-04-15 09:12 | 44.71705 | 11.48930 | 29896 ft | 438 kts | 356° |
| 2026-04-15 09:12 | 44.74752 | 11.48682 | 30021 ft | 438 kts | 356° |
| 2026-04-15 09:12 | 44.77795 | 11.48432 | 30146 ft | 438 kts | 356° |
| 2026-04-15 09:13 | 44.80836 | 11.48181 | 30271 ft | 438 kts | 356° |
| 2026-04-15 09:13 | 44.83874 | 11.47930 | 30396 ft | 437 kts | 356° |
| 2026-04-15 09:13 | 44.86911 | 11.47681 | 30521 ft | 437 kts | 356° |
| 2026-04-15 09:13 | 44.89950 | 11.47432 | 30646 ft | 437 kts | 356° |
| 2026-04-15 09:14 | 44.92977 | 11.47185 | 30770 ft | 436 kts | 356° |
| 2026-04-15 09:14 | 44.96010 | 11.46936 | 30896 ft | 436 kts | 356° |
| 2026-04-15 09:14 | 44.99036 | 11.46687 | 31021 ft | 435 kts | 356° |
| 2026-04-15 09:14 | 45.02058 | 11.46438 | 31146 ft | 435 kts | 356° |
| 2026-04-15 09:15 | 45.05078 | 11.46188 | 31271 ft | 435 kts | 356° |
| 2026-04-15 09:15 | 45.08097 | 11.45936 | 31396 ft | 434 kts | 356° |
| 2026-04-15 09:15 | 45.11118 | 11.45683 | 31521 ft | 434 kts | 356° |
| 2026-04-15 09:15 | 45.14129 | 11.45435 | 31646 ft | 433 kts | 356° |
| 2026-04-15 09:16 | 45.17135 | 11.45187 | 31770 ft | 433 kts | 356° |
| 2026-04-15 09:16 | 45.20144 | 11.44937 | 31896 ft | 433 kts | 356° |
| 2026-04-15 09:16 | 45.23143 | 11.44686 | 32020 ft | 432 kts | 356° |
| 2026-04-15 09:16 | 45.26148 | 11.44431 | 32145 ft | 432 kts | 356° |
| 2026-04-15 09:17 | 45.29144 | 11.44178 | 32270 ft | 431 kts | 356° |
| 2026-04-15 09:17 | 45.32140 | 11.43928 | 32395 ft | 431 kts | 356° |
| 2026-04-15 09:17 | 45.35125 | 11.43685 | 32520 ft | 430 kts | 356° |
| 2026-04-15 09:17 | 45.38117 | 11.43440 | 32646 ft | 429 kts | 356° |
| 2026-04-15 09:18 | 45.44137 | 11.42942 | 32412 ft | 441 kts | 356° |
| 2026-04-15 09:18 | 45.47224 | 11.42684 | 32164 ft | 449 kts | 356° |
| 2026-04-15 09:18 | 45.50363 | 11.42416 | 31972 ft | 455 kts | 356° |
| 2026-04-15 09:19 | 45.56691 | 11.41869 | 32008 ft | 456 kts | 356° |
| 2026-04-15 09:19 | 45.62610 | 11.41369 | 32009 ft | 458 kts | 356° |
| 2026-04-15 09:20 | 45.68994 | 11.40841 | 32009 ft | 460 kts | 356° |
| 2026-04-15 09:20 | 45.75397 | 11.40301 | 32010 ft | 462 kts | 356° |
| 2026-04-15 09:21 | 45.81818 | 11.39748 | 32009 ft | 463 kts | 356° |
| 2026-04-15 09:21 | 45.88268 | 11.39191 | 32009 ft | 465 kts | 356° |
| 2026-04-15 09:22 | 45.94731 | 11.38647 | 32009 ft | 466 kts | 356° |
| 2026-04-15 09:22 | 46.01209 | 11.38102 | 32009 ft | 467 kts | 356° |
| 2026-04-15 09:23 | 46.07694 | 11.37546 | 32009 ft | 467 kts | 356° |
| 2026-04-15 09:23 | 46.14151 | 11.36987 | 32009 ft | 468 kts | 356° |
| 2026-04-15 09:24 | 46.20657 | 11.36424 | 32009 ft | 469 kts | 356° |
| 2026-04-15 09:24 | 46.27177 | 11.35826 | 32009 ft | 469 kts | 355° |
| 2026-04-15 09:25 | 46.33665 | 11.34777 | 32009 ft | 470 kts | 352° |
| 2026-04-15 09:25 | 46.39088 | 11.33651 | 32008 ft | 470 kts | 351° |
| 2026-04-15 09:26 | 46.45544 | 11.32169 | 32007 ft | 470 kts | 346° |
| 2026-04-15 09:26 | 46.51620 | 11.28875 | 32010 ft | 469 kts | 336° |
| 2026-04-15 09:27 | 46.57632 | 11.25009 | 32009 ft | 470 kts | 335° |
| 2026-04-15 09:27 | 46.63601 | 11.21132 | 32009 ft | 470 kts | 335° |
| 2026-04-15 09:28 | 46.69582 | 11.17252 | 32009 ft | 470 kts | 335° |
| 2026-04-15 09:28 | 46.75529 | 11.13402 | 32009 ft | 471 kts | 335° |
| 2026-04-15 09:29 | 46.81510 | 11.09515 | 32009 ft | 471 kts | 335° |
| 2026-04-15 09:29 | 46.87485 | 11.05605 | 32009 ft | 471 kts | 335° |
| 2026-04-15 09:30 | 46.93449 | 11.01619 | 32009 ft | 471 kts | 335° |
| 2026-04-15 09:30 | 46.99407 | 10.97635 | 32010 ft | 471 kts | 335° |
| 2026-04-15 09:31 | 47.05396 | 10.93727 | 32009 ft | 471 kts | 336° |
| 2026-04-15 09:31 | 47.11389 | 10.89845 | 32008 ft | 471 kts | 336° |
| 2026-04-15 09:32 | 47.17367 | 10.85926 | 32009 ft | 471 kts | 335° |
| 2026-04-15 09:32 | 47.23342 | 10.81975 | 32009 ft | 471 kts | 335° |
| 2026-04-15 09:33 | 47.29318 | 10.78020 | 32010 ft | 471 kts | 335° |
| 2026-04-15 09:33 | 47.35298 | 10.74072 | 32009 ft | 471 kts | 335° |
| 2026-04-15 09:34 | 47.41294 | 10.70163 | 32009 ft | 471 kts | 337° |
| 2026-04-15 09:34 | 47.47388 | 10.66579 | 32009 ft | 471 kts | 339° |
| 2026-04-15 09:35 | 47.53523 | 10.63135 | 32009 ft | 471 kts | 339° |
| 2026-04-15 09:35 | 47.59639 | 10.59624 | 32009 ft | 471 kts | 338° |
| 2026-04-15 09:36 | 47.65729 | 10.56024 | 32009 ft | 471 kts | 338° |
| 2026-04-15 09:36 | 47.71817 | 10.52411 | 32009 ft | 471 kts | 338° |
| 2026-04-15 09:37 | 47.77907 | 10.48806 | 32009 ft | 471 kts | 338° |
| 2026-04-15 09:37 | 47.84004 | 10.45214 | 32009 ft | 471 kts | 338° |
| 2026-04-15 09:38 | 47.90094 | 10.41612 | 32009 ft | 471 kts | 338° |
| 2026-04-15 09:38 | 47.96186 | 10.37986 | 32009 ft | 471 kts | 338° |
| 2026-04-15 09:39 | 48.02272 | 10.34353 | 32009 ft | 471 kts | 338° |
| 2026-04-15 09:39 | 48.08358 | 10.30701 | 32009 ft | 471 kts | 338° |
| 2026-04-15 09:40 | 48.14447 | 10.27048 | 32009 ft | 471 kts | 338° |
| 2026-04-15 09:40 | 48.20450 | 10.23131 | 32007 ft | 471 kts | 329° |
| 2026-04-15 09:41 | 48.25707 | 10.17309 | 32009 ft | 470 kts | 320° |
| 2026-04-15 09:41 | 48.30798 | 10.11134 | 32009 ft | 470 kts | 321° |
| 2026-04-15 09:42 | 48.35857 | 10.05009 | 32009 ft | 470 kts | 321° |
| 2026-04-15 09:42 | 48.40978 | 9.98780 | 32009 ft | 470 kts | 320° |
| 2026-04-15 09:43 | 48.46019 | 9.92606 | 32009 ft | 470 kts | 320° |
| 2026-04-15 09:43 | 48.51094 | 9.86379 | 32009 ft | 470 kts | 320° |
| 2026-04-15 09:44 | 48.56175 | 9.80144 | 32009 ft | 471 kts | 320° |
| 2026-04-15 09:44 | 48.61241 | 9.73887 | 32009 ft | 470 kts | 320° |
| 2026-04-15 09:45 | 48.66204 | 9.67443 | 32009 ft | 470 kts | 318° |
| 2026-04-15 09:45 | 48.71106 | 9.60876 | 32009 ft | 470 kts | 318° |
| 2026-04-15 09:46 | 48.76014 | 9.54312 | 32009 ft | 471 kts | 318° |
| 2026-04-15 09:46 | 48.80942 | 9.47777 | 32009 ft | 471 kts | 319° |
| 2026-04-15 09:47 | 48.85876 | 9.41242 | 32009 ft | 471 kts | 318° |
| 2026-04-15 09:47 | 48.90862 | 9.34800 | 32005 ft | 471 kts | 324° |
| 2026-04-15 09:48 | 48.96589 | 9.30007 | 32009 ft | 471 kts | 333° |
| 2026-04-15 09:48 | 49.02462 | 9.25568 | 32009 ft | 471 kts | 333° |
| 2026-04-15 09:49 | 49.08321 | 9.21098 | 32009 ft | 471 kts | 333° |
| 2026-04-15 09:49 | 49.14182 | 9.16606 | 32009 ft | 471 kts | 333° |
| 2026-04-15 09:50 | 49.20333 | 9.13202 | 31290 ft | 477 kts | 342° |
| 2026-04-15 09:50 | 49.23386 | 9.11172 | 30642 ft | 481 kts | 332° |
| 2026-04-15 09:50 | 49.26468 | 9.09178 | 29941 ft | 481 kts | 343° |
| 2026-04-15 09:51 | 49.29766 | 9.08280 | 28934 ft | 483 kts | 356° |
| 2026-04-15 09:51 | 49.33108 | 9.08060 | 28182 ft | 479 kts | 357° |
| 2026-04-15 09:51 | 49.36426 | 9.07841 | 27433 ft | 475 kts | 357° |
| 2026-04-15 09:51 | 49.39711 | 9.07612 | 26684 ft | 471 kts | 357° |
| 2026-04-15 09:52 | 49.42975 | 9.07377 | 25932 ft | 467 kts | 357° |
| 2026-04-15 09:52 | 49.46209 | 9.07144 | 25181 ft | 464 kts | 357° |
| 2026-04-15 09:52 | 49.49420 | 9.06919 | 24429 ft | 460 kts | 357° |
| 2026-04-15 09:52 | 49.52604 | 9.06703 | 23677 ft | 456 kts | 357° |
| 2026-04-15 09:53 | 49.55761 | 9.06496 | 22928 ft | 453 kts | 357° |
| 2026-04-15 09:53 | 49.58897 | 9.06285 | 22175 ft | 450 kts | 357° |
| 2026-04-15 09:53 | 49.62021 | 9.06071 | 21423 ft | 448 kts | 357° |
| 2026-04-15 09:53 | 49.65124 | 9.05855 | 20671 ft | 445 kts | 357° |
| 2026-04-15 09:54 | 49.68210 | 9.05640 | 19919 ft | 443 kts | 357° |
| 2026-04-15 09:54 | 49.71283 | 9.05426 | 19167 ft | 441 kts | 357° |
| 2026-04-15 09:54 | 49.74337 | 9.05216 | 18416 ft | 438 kts | 357° |
| 2026-04-15 09:54 | 49.77376 | 9.05001 | 17664 ft | 436 kts | 357° |
| 2026-04-15 09:55 | 49.80401 | 9.04787 | 16912 ft | 434 kts | 357° |
| 2026-04-15 09:55 | 49.83413 | 9.04576 | 16160 ft | 432 kts | 357° |
| 2026-04-15 09:55 | 49.86409 | 9.04364 | 15407 ft | 430 kts | 356° |
| 2026-04-15 09:55 | 49.89299 | 9.03404 | 14906 ft | 421 kts | 336° |
| 2026-04-15 09:56 | 49.91681 | 9.00970 | 14775 ft | 403 kts | 315° |
| 2026-04-15 09:56 | 49.93284 | 8.97526 | 14558 ft | 389 kts | 294° |
| 2026-04-15 09:56 | 49.94892 | 8.89675 | 13613 ft | 378 kts | 285° |
| 2026-04-15 09:57 | 49.95616 | 8.85779 | 13111 ft | 373 kts | 285° |
| 2026-04-15 09:57 | 49.96327 | 8.81924 | 12611 ft | 369 kts | 285° |
| 2026-04-15 09:57 | 49.97032 | 8.78116 | 12110 ft | 365 kts | 285° |
| 2026-04-15 09:57 | 49.97691 | 8.74327 | 11609 ft | 361 kts | 279° |
| 2026-04-15 09:58 | 49.97752 | 8.70469 | 11107 ft | 356 kts | 261° |
| 2026-04-15 09:58 | 49.97080 | 8.66802 | 10608 ft | 351 kts | 249° |
| 2026-04-15 09:58 | 49.96233 | 8.63270 | 10107 ft | 347 kts | 249° |
| 2026-04-15 09:58 | 49.95389 | 8.59777 | 9605 ft | 343 kts | 249° |
| 2026-04-15 09:59 | 49.94554 | 8.56332 | 9023 ft | 341 kts | 249° |
| 2026-04-15 09:59 | 49.93728 | 8.52931 | 8313 ft | 330 kts | 249° |
| 2026-04-15 09:59 | 49.92934 | 8.49660 | 7614 ft | 318 kts | 249° |
| 2026-04-15 09:59 | 49.92167 | 8.46492 | 6913 ft | 309 kts | 249° |
| 2026-04-15 10:00 | 49.91426 | 8.43407 | 6211 ft | 301 kts | 249° |
| 2026-04-15 10:00 | 49.90703 | 8.40398 | 5508 ft | 294 kts | 249° |
| 2026-04-15 10:00 | 49.89994 | 8.37463 | 4805 ft | 287 kts | 249° |
| 2026-04-15 10:00 | 49.89320 | 8.34624 | 4113 ft | 282 kts | 253° |
| 2026-04-15 10:01 | 49.89167 | 8.31651 | 3410 ft | 278 kts | 279° |
| 2026-04-15 10:01 | 49.89933 | 8.28902 | 2869 ft | 280 kts | 309° |
| 2026-04-15 10:01 | 49.91408 | 8.27089 | 2735 ft | 267 kts | 335° |
| 2026-04-15 10:01 | 49.93197 | 8.26449 | 2743 ft | 266 kts | 360° |
| 2026-04-15 10:02 | 49.94996 | 8.27011 | 2746 ft | 266 kts | 25° |
| 2026-04-15 10:02 | 49.96483 | 8.28684 | 2743 ft | 266 kts | 49° |
| 2026-04-15 10:02 | 49.97399 | 8.31158 | 2750 ft | 266 kts | 69° |
| 2026-04-15 10:02 | 49.98033 | 8.33796 | 2742 ft | 253 kts | 70° |
| 2026-04-15 10:03 | 49.98629 | 8.36283 | 2612 ft | 242 kts | 70° |
| 2026-04-15 10:03 | 49.99206 | 8.38677 | 2313 ft | 227 kts | 70° |
| 2026-04-15 10:03 | 49.99739 | 8.40881 | 2028 ft | 210 kts | 70° |
| 2026-04-15 10:03 | 50.00224 | 8.42893 | 1787 ft | 189 kts | 70° |
| 2026-04-15 10:04 | 50.00663 | 8.44714 | 1551 ft | 168 kts | 70° |
| 2026-04-15 10:04 | 50.01055 | 8.46346 | 1315 ft | 155 kts | 70° |
| 2026-04-15 10:04 | 50.01422 | 8.47873 | 1117 ft | 148 kts | 70° |
| 2026-04-15 10:04 | 50.01777 | 8.49361 | 918 ft | 146 kts | 70° |
| 2026-04-15 10:05 | 50.02125 | 8.50837 | 714 ft | 144 kts | 70° |
| 2026-04-15 10:05 | 50.02481 | 8.52292 | 513 ft | 144 kts | 68° |
| 2026-04-15 10:05 | 50.02834 | 8.53738 | 349 ft | 140 kts | 71° |
| 2026-04-15 10:05 | 50.03124 | 8.54956 | 342 ft | 95 kts | 69° |
| 2026-04-15 10:06 | 50.03321 | 8.55782 | 344 ft | 71 kts | 70° |
| 2026-04-15 10:06 | 50.03450 | 8.56214 | 351 ft | 33 kts | 54° |
| 2026-04-15 10:06 | 50.03582 | 8.56428 | 347 ft | 23 kts | 40° |
| 2026-04-15 10:06 | 50.03638 | 8.56501 | 349 ft | 5 kts | 39° |
| 2026-04-15 10:07 | 50.03664 | 8.56535 | 350 ft | 9 kts | 40° |
| 2026-04-15 10:07 | 50.03722 | 8.56611 | 351 ft | 10 kts | 40° |
| 2026-04-15 10:07 | 50.03785 | 8.56712 | 353 ft | 21 kts | 56° |
| 2026-04-15 10:07 | 50.03844 | 8.56934 | 354 ft | 23 kts | 69° |
| 2026-04-15 10:08 | 50.03899 | 8.57167 | 359 ft | 23 kts | 70° |
| 2026-04-15 10:08 | 50.03951 | 8.57392 | 364 ft | 22 kts | 70° |
| 2026-04-15 10:08 | 50.03986 | 8.57540 | 365 ft | 22 kts | 70° |
| 2026-04-15 10:08 | 50.04041 | 8.57773 | 366 ft | 24 kts | 70° |
| 2026-04-15 10:09 | 50.04099 | 8.58018 | 367 ft | 23 kts | 69° |
| 2026-04-15 10:09 | 50.04209 | 8.58188 | 366 ft | 22 kts | 26° |
| 2026-04-15 10:09 | 50.04284 | 8.58204 | 366 ft | 0 kts | 341° |
| 2026-04-15 10:10 | 50.04285 | 8.58203 | 366 ft | 2 kts | 341° |
| 2026-04-15 10:10 | 50.04360 | 8.58161 | 367 ft | 20 kts | 339° |
| 2026-04-15 10:10 | 50.04498 | 8.58079 | 365 ft | 23 kts | 338° |
| 2026-04-15 10:10 | 50.04662 | 8.57982 | 358 ft | 28 kts | 339° |
| 2026-04-15 10:11 | 50.04826 | 8.57880 | 358 ft | 23 kts | 318° |
| 2026-04-15 10:11 | 50.04882 | 8.57716 | 357 ft | 12 kts | 291° |
| 2026-04-15 10:11 | 50.04915 | 8.57594 | 356 ft | 13 kts | 293° |
| 2026-04-15 10:11 | 50.04947 | 8.57481 | 356 ft | 5 kts | 295° |
| 2026-04-15 10:12 | 50.04960 | 8.57442 | 356 ft | 4 kts | 302° |
| 2026-04-15 10:12 | 50.04985 | 8.57410 | 356 ft | 4 kts | 331° |
| 2026-04-15 10:12 | 50.05004 | 8.57409 | 356 ft | 1 kts | 39° |
| 2026-04-15 10:12 | 50.05004 | 8.57420 | 356 ft | 3 kts | 84° |
| 2026-04-15 10:13 | 50.05004 | 8.57425 | 356 ft | 0 kts | 79° |
| 2026-04-15 10:13 | 50.05005 | 8.57427 | 356 ft | 0 kts | 78° |
| 2026-04-15 10:13 | 50.05005 | 8.57429 | 356 ft | 0 kts | 78° |
| 2026-04-15 10:15 | 50.05005 | 8.57428 | 356 ft | 0 kts | 78° |
| 2026-04-15 10:15 | 50.05005 | 8.57429 | 356 ft | 0 kts | 78° |